createdAt,value
2023-04-20T00:00:55.138Z,6.960144
2023-04-20T00:02:04.945Z,6.929932
2023-04-20T00:03:12.646Z,6.970215
2023-04-20T00:04:21.192Z,7.000427
2023-04-20T00:05:30.945Z,7.03064
2023-04-20T00:06:38.629Z,7.020569
2023-04-20T00:07:48.342Z,7.020569
2023-04-20T00:08:57.011Z,6.919861
2023-04-20T00:10:04.662Z,6.929932
2023-04-20T00:11:14.353Z,6.919861
2023-04-20T00:12:22.028Z,6.919861
2023-04-20T00:13:30.679Z,6.990356
2023-04-20T00:14:40.339Z,7.020569
2023-04-20T00:15:49.045Z,7.03064
2023-04-20T00:16:58.815Z,7.101135
2023-04-20T00:18:08.437Z,7.020569
2023-04-20T00:19:17.196Z,7.050781
2023-04-20T00:20:26.761Z,7.070923
2023-04-20T00:21:35.434Z,7.060852
2023-04-20T00:22:44.105Z,7.000427
2023-04-20T00:23:53.822Z,7.03064
2023-04-20T00:25:01.446Z,7.060852
2023-04-20T00:26:11.151Z,7.101135
2023-04-20T00:27:19.818Z,7.101135
2023-04-20T00:28:28.506Z,6.970215
2023-04-20T00:29:38.176Z,7.050781
2023-04-20T00:30:46.869Z,7.070923
2023-04-20T00:31:54.497Z,6.970215
2023-04-20T00:33:03.272Z,6.950073
2023-04-20T00:34:12.834Z,6.960144
2023-04-20T00:35:22.571Z,6.970215
2023-04-20T00:36:31.285Z,6.960144
2023-04-20T00:37:39.012Z,6.970215
2023-04-20T00:38:48.697Z,6.960144
2023-04-20T00:39:57.390Z,7.000427
2023-04-20T00:41:07.092Z,7.020569
2023-04-20T00:42:16.768Z,7.101135
2023-04-20T00:43:25.466Z,7.070923
2023-04-20T00:44:35.169Z,7.131348
2023-04-20T00:45:44.904Z,7.101135
2023-04-20T00:46:53.524Z,7.020569
2023-04-20T00:48:03.199Z,6.950073
2023-04-20T00:49:11.866Z,6.960144
2023-04-20T00:50:20.502Z,6.950073
2023-04-20T00:51:30.188Z,7.111206
2023-04-20T00:52:38.843Z,7.201843
2023-04-20T00:53:48.511Z,7.28241
2023-04-20T00:54:58.151Z,7.332764
2023-04-20T00:56:05.870Z,7.312622
2023-04-20T00:57:15.557Z,7.312622
2023-04-20T00:58:23.205Z,7.332764
2023-04-20T00:59:31.904Z,7.403259
2023-04-20T01:00:41.621Z,7.332764
2023-04-20T01:01:50.350Z,7.242126
2023-04-20T01:03:01.139Z,7.242126
2023-04-20T01:04:09.745Z,7.242126
2023-04-20T01:05:17.369Z,7.312622
2023-04-20T01:06:27.047Z,7.332764
2023-04-20T01:07:34.771Z,7.362976
2023-04-20T01:08:43.439Z,7.29248
2023-04-20T01:09:53.147Z,7.201843
2023-04-20T01:11:01.825Z,7.181702
2023-04-20T01:12:11.486Z,7.232056
2023-04-20T01:13:21.173Z,7.181702
2023-04-20T01:14:29.844Z,7.242126
2023-04-20T01:15:39.565Z,7.28241
2023-04-20T01:16:47.218Z,7.29248
2023-04-20T01:17:55.868Z,7.29248
2023-04-20T01:19:05.528Z,7.232056
2023-04-20T01:20:14.188Z,7.151489
2023-04-20T01:21:23.896Z,7.101135
2023-04-20T01:22:33.550Z,7.020569
2023-04-20T01:23:41.191Z,6.990356
2023-04-20T01:24:50.860Z,6.990356
2023-04-20T01:25:59.571Z,6.970215
2023-04-20T01:27:08.250Z,7.000427
2023-04-20T01:28:16.895Z,6.889648
2023-04-20T01:29:25.608Z,6.950073
2023-04-20T01:30:35.503Z,6.960144
2023-04-20T01:31:45.209Z,6.960144
2023-04-20T01:32:55.934Z,6.929932
2023-04-20T01:34:05.602Z,6.879578
2023-04-20T01:35:14.264Z,6.950073
2023-04-20T01:36:23.995Z,7.000427
2023-04-20T01:37:33.922Z,7.070923
2023-04-20T01:38:41.437Z,7.141418
2023-04-20T01:39:51.134Z,7.211914
2023-04-20T01:40:59.805Z,7.252197
2023-04-20T01:42:07.473Z,7.28241
2023-04-20T01:43:17.173Z,7.322693
2023-04-20T01:44:26.834Z,7.312622
2023-04-20T01:45:36.504Z,7.232056
2023-04-20T01:46:46.218Z,7.211914
2023-04-20T01:47:54.948Z,7.111206
2023-04-20T01:49:04.537Z,7.060852
2023-04-20T01:50:13.195Z,7.101135
2023-04-20T01:51:22.882Z,7.141418
2023-04-20T01:52:32.549Z,7.03064
2023-04-20T01:53:40.252Z,7.101135
2023-04-20T01:54:48.868Z,7.151489
2023-04-20T01:55:58.594Z,7.181702
2023-04-20T01:57:06.269Z,7.181702
2023-04-20T01:58:15.937Z,7.020569
2023-04-20T01:59:24.605Z,7.111206
2023-04-20T02:00:33.289Z,7.101135
2023-04-20T02:01:42.979Z,7.03064
2023-04-20T02:02:51.680Z,7.151489
2023-04-20T02:04:01.420Z,7.050781
2023-04-20T02:05:11.016Z,6.990356
2023-04-20T02:06:20.676Z,6.78894
2023-04-20T02:07:29.343Z,6.879578
2023-04-20T02:08:39.022Z,6.889648
2023-04-20T02:09:47.718Z,6.738586
2023-04-20T02:10:56.358Z,6.637878
2023-04-20T02:12:06.084Z,6.627808
2023-04-20T02:13:13.716Z,6.597595
2023-04-20T02:14:23.408Z,6.65802
2023-04-20T02:15:33.096Z,6.65802
2023-04-20T02:16:40.772Z,6.738586
2023-04-20T02:17:50.437Z,6.748657
2023-04-20T02:18:58.093Z,6.688232
2023-04-20T02:20:06.793Z,6.567383
2023-04-20T02:21:16.452Z,6.627808
2023-04-20T02:22:26.160Z,6.567383
2023-04-20T02:23:35.810Z,6.65802
2023-04-20T02:24:43.465Z,6.53717
2023-04-20T02:25:51.169Z,6.40625
2023-04-20T02:27:00.831Z,6.53717
2023-04-20T02:28:08.508Z,6.456604
2023-04-20T02:29:17.431Z,6.53717
2023-04-20T02:30:26.883Z,6.517029
2023-04-20T02:31:35.576Z,6.40625
2023-04-20T02:32:45.257Z,6.376038
2023-04-20T02:33:53.913Z,6.224976
2023-04-20T02:35:02.603Z,6.376038
2023-04-20T02:36:12.303Z,6.416321
2023-04-20T02:37:19.963Z,6.446533
2023-04-20T02:38:28.619Z,6.376038
2023-04-20T02:39:38.276Z,6.386108
2023-04-20T02:40:46.934Z,6.255188
2023-04-20T02:41:56.625Z,6.094055
2023-04-20T02:43:06.294Z,6.053772
2023-04-20T02:44:13.958Z,6.194763
2023-04-20T02:45:22.627Z,6.224976
2023-04-20T02:46:31.354Z,6.124268
2023-04-20T02:47:41.058Z,6.194763
2023-04-20T02:48:50.624Z,6.194763
2023-04-20T02:49:58.289Z,6.02356
2023-04-20T02:51:06.994Z,6.043701
2023-04-20T02:52:15.686Z,6.043701
2023-04-20T02:53:24.346Z,6.083984
2023-04-20T02:54:34.006Z,6.053772
2023-04-20T02:55:41.680Z,6.174622
2023-04-20T02:56:50.352Z,6.235046
2023-04-20T02:58:00.074Z,6.295471
2023-04-20T02:59:08.704Z,6.355896
2023-04-20T03:00:18.412Z,6.325684
2023-04-20T03:01:27.093Z,6.40625
2023-04-20T03:02:33.838Z,6.456604
2023-04-20T03:03:43.574Z,6.517029
2023-04-20T03:04:51.140Z,6.557312
2023-04-20T03:06:00.763Z,6.65802
2023-04-20T03:07:10.435Z,6.738586
2023-04-20T03:08:20.120Z,6.77887
2023-04-20T03:09:29.791Z,6.768799
2023-04-20T03:10:38.455Z,6.567383
2023-04-20T03:11:46.170Z,6.557312
2023-04-20T03:12:55.841Z,6.567383
2023-04-20T03:14:03.653Z,6.517029
2023-04-20T03:15:13.215Z,6.53717
2023-04-20T03:16:22.904Z,6.557312
2023-04-20T03:17:30.612Z,6.627808
2023-04-20T03:18:40.270Z,6.668091
2023-04-20T03:19:49.941Z,6.748657
2023-04-20T03:20:58.594Z,6.819153
2023-04-20T03:22:08.316Z,6.77887
2023-04-20T03:23:17.005Z,6.809082
2023-04-20T03:24:25.673Z,6.839294
2023-04-20T03:25:35.344Z,6.748657
2023-04-20T03:26:44.029Z,6.839294
2023-04-20T03:27:53.706Z,6.819153
2023-04-20T03:29:03.424Z,6.879578
2023-04-20T03:30:11.251Z,6.929932
2023-04-20T03:31:20.898Z,6.960144
2023-04-20T03:32:32.634Z,7.020569
2023-04-20T03:33:39.218Z,6.970215
2023-04-20T03:34:47.900Z,6.809082
2023-04-20T03:35:56.565Z,6.809082
2023-04-20T03:37:06.252Z,6.819153
2023-04-20T03:38:15.059Z,6.718445
2023-04-20T03:39:24.732Z,6.77887
2023-04-20T03:40:34.397Z,6.819153
2023-04-20T03:41:43.063Z,6.819153
2023-04-20T03:42:51.923Z,6.718445
2023-04-20T03:44:01.618Z,6.597595
2023-04-20T03:45:10.284Z,6.486816
2023-04-20T03:46:21.448Z,6.436462
2023-04-20T03:47:29.708Z,6.265259
2023-04-20T03:48:38.363Z,6.27533
2023-04-20T03:49:48.022Z,6.265259
2023-04-20T03:50:55.686Z,6.174622
2023-04-20T03:52:04.364Z,6.325684
2023-04-20T03:53:14.103Z,6.446533
2023-04-20T03:54:21.813Z,6.355896
2023-04-20T03:55:31.491Z,6.376038
2023-04-20T03:56:40.156Z,6.446533
2023-04-20T03:57:48.864Z,6.476746
2023-04-20T03:58:57.518Z,6.517029
2023-04-20T04:00:07.212Z,6.486816
2023-04-20T04:01:15.981Z,6.436462
2023-04-20T04:02:25.819Z,6.446533
2023-04-20T04:03:36.582Z,6.355896
2023-04-20T04:04:44.104Z,6.265259
2023-04-20T04:05:53.715Z,6.174622
2023-04-20T04:07:01.411Z,6.053772
2023-04-20T04:08:10.113Z,6.144409
2023-04-20T04:09:19.869Z,6.083984
2023-04-20T04:10:28.483Z,6.265259
2023-04-20T04:11:38.159Z,6.255188
2023-04-20T04:12:46.814Z,6.255188
2023-04-20T04:13:54.544Z,6.355896
2023-04-20T04:15:04.226Z,6.325684
2023-04-20T04:16:12.919Z,6.235046
2023-04-20T04:17:21.602Z,6.325684
2023-04-20T04:18:31.345Z,6.325684
2023-04-20T04:19:39.035Z,6.355896
2023-04-20T04:20:48.821Z,6.345825
2023-04-20T04:21:58.511Z,6.325684
2023-04-20T04:23:06.220Z,6.325684
2023-04-20T04:24:15.914Z,6.416321
2023-04-20T04:25:23.588Z,6.476746
2023-04-20T04:26:33.309Z,6.567383
2023-04-20T04:27:43.031Z,6.587524
2023-04-20T04:28:50.758Z,6.617737
2023-04-20T04:30:00.481Z,6.668091
2023-04-20T04:31:09.175Z,6.587524
2023-04-20T04:32:16.898Z,6.53717
2023-04-20T04:33:26.835Z,6.53717
2023-04-20T04:34:34.682Z,6.345825
2023-04-20T04:35:43.222Z,6.416321
2023-04-20T04:36:52.948Z,6.436462
2023-04-20T04:38:00.629Z,6.40625
2023-04-20T04:39:10.356Z,6.416321
2023-04-20T04:40:19.027Z,6.376038
2023-04-20T04:41:27.708Z,6.295471
2023-04-20T04:42:37.418Z,6.255188
2023-04-20T04:43:45.144Z,6.295471
2023-04-20T04:44:52.804Z,6.295471
2023-04-20T04:46:02.501Z,6.40625
2023-04-20T04:47:12.243Z,6.476746
2023-04-20T04:48:21.922Z,6.376038
2023-04-20T04:49:31.582Z,6.124268
2023-04-20T04:50:40.269Z,6.295471
2023-04-20T04:51:49.935Z,6.40625
2023-04-20T04:52:58.627Z,6.506958
2023-04-20T04:54:08.416Z,6.506958
2023-04-20T04:55:18.052Z,6.53717
2023-04-20T04:56:25.724Z,6.567383
2023-04-20T04:57:35.382Z,6.376038
2023-04-20T04:58:44.077Z,6.416321
2023-04-20T04:59:51.945Z,6.255188
2023-04-20T05:01:01.628Z,6.235046
2023-04-20T05:02:09.383Z,6.265259
2023-04-20T05:03:18.096Z,6.235046
2023-04-20T05:04:28.768Z,6.164551
2023-04-20T05:05:37.393Z,6.295471
2023-04-20T05:06:47.170Z,6.40625
2023-04-20T05:07:55.721Z,6.587524
2023-04-20T05:09:04.448Z,6.597595
2023-04-20T05:10:15.148Z,6.617737
2023-04-20T05:11:23.785Z,6.627808
2023-04-20T05:12:31.456Z,6.567383
2023-04-20T05:13:41.144Z,6.627808
2023-04-20T05:14:49.936Z,6.748657
2023-04-20T05:15:58.613Z,6.809082
2023-04-20T05:17:08.269Z,6.768799
2023-04-20T05:18:15.934Z,6.809082
2023-04-20T05:19:25.669Z,6.78894
2023-04-20T05:20:35.360Z,6.879578
2023-04-20T05:21:44.045Z,6.78894
2023-04-20T05:22:53.763Z,6.738586
2023-04-20T05:24:03.452Z,6.688232
2023-04-20T05:25:14.050Z,6.506958
2023-04-20T05:26:21.830Z,6.637878
2023-04-20T05:27:29.472Z,6.688232
2023-04-20T05:28:38.112Z,6.637878
2023-04-20T05:29:46.967Z,6.627808
2023-04-20T05:30:55.615Z,6.557312
2023-04-20T05:32:05.389Z,6.456604
2023-04-20T05:33:15.087Z,6.506958
2023-04-20T05:34:24.165Z,6.446533
2023-04-20T05:35:33.977Z,6.476746
2023-04-20T05:36:41.664Z,6.386108
2023-04-20T05:37:51.397Z,6.456604
2023-04-20T05:39:00.139Z,6.587524
2023-04-20T05:40:08.792Z,6.486816
2023-04-20T05:41:18.513Z,6.295471
2023-04-20T05:42:26.243Z,6.27533
2023-04-20T05:43:35.066Z,6.325684
2023-04-20T05:44:44.770Z,6.446533
2023-04-20T05:45:53.448Z,6.305542
2023-04-20T05:47:03.131Z,6.224976
2023-04-20T05:48:11.863Z,6.305542
2023-04-20T05:49:20.572Z,6.486816
2023-04-20T05:50:30.271Z,6.587524
2023-04-20T05:51:37.928Z,6.325684
2023-04-20T05:52:47.590Z,6.40625
2023-04-20T05:53:57.278Z,6.446533
2023-04-20T05:55:05.014Z,6.557312
2023-04-20T05:56:15.650Z,6.617737
2023-04-20T05:57:25.355Z,6.637878
2023-04-20T05:58:34.023Z,6.668091
2023-04-20T05:59:43.737Z,6.738586
2023-04-20T06:00:53.409Z,6.698303
2023-04-20T06:02:03.113Z,6.77887
2023-04-20T06:03:11.907Z,6.748657
2023-04-20T06:04:20.671Z,6.78894
2023-04-20T06:05:29.217Z,6.879578
2023-04-20T06:06:38.823Z,6.849365
2023-04-20T06:07:46.524Z,6.929932
2023-04-20T06:08:55.164Z,6.879578
2023-04-20T06:10:04.931Z,6.929932
2023-04-20T06:11:13.659Z,6.960144
2023-04-20T06:12:25.189Z,6.990356
2023-04-20T06:13:33.208Z,6.889648
2023-04-20T06:14:41.913Z,6.889648
2023-04-20T06:15:50.627Z,6.990356
2023-04-20T06:17:00.314Z,6.960144
2023-04-20T06:18:10.058Z,7.03064
2023-04-20T06:19:19.765Z,7.060852
2023-04-20T06:20:27.559Z,7.151489
2023-04-20T06:21:37.233Z,7.201843
2023-04-20T06:22:46.960Z,7.252197
2023-04-20T06:23:55.713Z,7.252197
2023-04-20T06:25:05.414Z,7.050781
2023-04-20T06:26:14.089Z,7.020569
2023-04-20T06:27:22.791Z,6.990356
2023-04-20T06:28:32.431Z,7.101135
2023-04-20T06:29:40.104Z,7.060852
2023-04-20T06:30:49.806Z,7.211914
2023-04-20T06:31:58.496Z,7.252197
2023-04-20T06:33:07.255Z,7.28241
2023-04-20T06:34:16.869Z,7.29248
2023-04-20T06:35:24.638Z,7.312622
2023-04-20T06:36:33.293Z,7.252197
2023-04-20T06:37:42.973Z,7.151489
2023-04-20T06:38:50.651Z,6.950073
2023-04-20T06:40:00.351Z,7.020569
2023-04-20T06:41:09.066Z,7.111206
2023-04-20T06:42:18.750Z,7.000427
2023-04-20T06:43:28.484Z,6.950073
2023-04-20T06:44:37.136Z,7.141418
2023-04-20T06:45:46.823Z,7.211914
2023-04-20T06:46:56.574Z,7.060852
2023-04-20T06:48:05.195Z,6.919861
2023-04-20T06:49:16.029Z,6.738586
2023-04-20T06:50:24.624Z,6.869507
2023-04-20T06:51:34.359Z,6.879578
2023-04-20T06:52:44.003Z,6.839294
2023-04-20T06:53:51.667Z,6.960144
2023-04-20T06:55:01.349Z,7.000427
2023-04-20T06:56:11.054Z,7.101135
2023-04-20T06:57:21.813Z,7.000427
2023-04-20T06:58:31.690Z,6.839294
2023-04-20T06:59:41.196Z,6.839294
2023-04-20T07:00:48.893Z,6.950073
2023-04-20T07:01:58.706Z,6.819153
2023-04-20T07:03:06.354Z,6.738586
2023-04-20T07:04:14.987Z,6.809082
2023-04-20T07:05:24.623Z,6.919861
2023-04-20T07:06:33.302Z,6.990356
2023-04-20T07:07:41.949Z,7.020569
2023-04-20T07:08:50.644Z,7.131348
2023-04-20T07:10:00.351Z,7.000427
2023-04-20T07:11:10.057Z,6.718445
2023-04-20T07:12:17.703Z,6.597595
2023-04-20T07:13:26.384Z,6.637878
2023-04-20T07:14:36.310Z,6.78894
2023-04-20T07:15:44.792Z,6.919861
2023-04-20T07:16:54.536Z,7.020569
2023-04-20T07:18:03.270Z,6.849365
2023-04-20T07:19:10.938Z,6.809082
2023-04-20T07:20:20.660Z,6.688232
2023-04-20T07:21:28.316Z,6.637878
2023-04-20T07:22:37.161Z,6.587524
2023-04-20T07:23:46.853Z,6.668091
2023-04-20T07:24:54.601Z,6.627808
2023-04-20T07:26:04.329Z,6.809082
2023-04-20T07:27:13.094Z,6.849365
2023-04-20T07:28:22.851Z,6.879578
2023-04-20T07:29:34.004Z,7.000427
2023-04-20T07:30:41.706Z,7.060852
2023-04-20T07:31:51.241Z,6.970215
2023-04-20T07:33:01.098Z,7.020569
2023-04-20T07:34:08.857Z,6.879578
2023-04-20T07:35:18.613Z,6.78894
2023-04-20T07:36:26.295Z,6.819153
2023-04-20T07:37:34.051Z,6.889648
2023-04-20T07:38:43.815Z,6.990356
2023-04-20T07:39:51.807Z,6.869507
2023-04-20T07:41:01.658Z,6.960144
2023-04-20T07:42:11.647Z,6.889648
2023-04-20T07:43:19.639Z,6.960144
2023-04-20T07:44:29.214Z,6.990356
2023-04-20T07:45:38.235Z,6.950073
2023-04-20T07:46:46.063Z,7.070923
2023-04-20T07:47:55.917Z,7.060852
2023-04-20T07:49:03.750Z,7.000427
2023-04-20T07:50:14.061Z,6.919861
2023-04-20T07:51:23.842Z,6.960144
2023-04-20T07:52:32.694Z,7.101135
2023-04-20T07:53:42.474Z,7.141418
2023-04-20T07:54:52.171Z,7.252197
2023-04-20T07:56:00.900Z,7.423401
2023-04-20T07:57:09.635Z,7.53418
2023-04-20T07:58:19.427Z,7.383118
2023-04-20T07:59:27.195Z,7.423401
2023-04-20T08:00:35.953Z,7.423401
2023-04-20T08:01:44.670Z,7.473755
2023-04-20T08:02:54.551Z,7.503967
2023-04-20T08:04:04.251Z,7.514038
2023-04-20T08:05:13.135Z,7.503967
2023-04-20T08:06:21.481Z,7.473755
2023-04-20T08:07:31.224Z,7.564392
2023-04-20T08:08:38.944Z,7.473755
2023-04-20T08:09:48.660Z,7.433472
2023-04-20T08:10:57.411Z,7.433472
2023-04-20T08:12:07.078Z,7.29248
2023-04-20T08:13:16.822Z,7.28241
2023-04-20T08:14:26.586Z,7.383118
2023-04-20T08:15:34.306Z,7.211914
2023-04-20T08:16:44.031Z,7.181702
2023-04-20T08:17:53.729Z,7.181702
2023-04-20T08:19:03.475Z,7.322693
2023-04-20T08:20:13.209Z,7.433472
2023-04-20T08:21:21.883Z,7.322693
2023-04-20T08:22:30.640Z,7.352905
2023-04-20T08:23:38.338Z,7.352905
2023-04-20T08:24:47.123Z,6.970215
2023-04-20T08:25:56.734Z,6.970215
2023-04-20T08:27:04.538Z,7.050781
2023-04-20T08:28:19.678Z,7.151489
2023-04-20T08:29:24.865Z,7.242126
2023-04-20T08:30:32.606Z,7.322693
2023-04-20T08:31:42.362Z,7.131348
2023-04-20T08:32:51.977Z,7.03064
2023-04-20T08:34:01.680Z,7.03064
2023-04-20T08:35:11.393Z,7.181702
2023-04-20T08:36:20.078Z,7.242126
2023-04-20T08:37:31.357Z,7.352905
2023-04-20T08:38:39.553Z,7.473755
2023-04-20T08:39:48.208Z,7.584534
2023-04-20T08:40:57.912Z,7.6651
2023-04-20T08:42:06.605Z,7.685242
2023-04-20T08:43:14.289Z,7.6651
2023-04-20T08:44:23.975Z,7.584534
2023-04-20T08:45:32.690Z,7.574463
2023-04-20T08:46:42.405Z,7.614746
2023-04-20T08:47:51.082Z,7.483826
2023-04-20T08:49:00.840Z,7.695312
2023-04-20T08:50:10.587Z,7.816162
2023-04-20T08:51:18.339Z,7.846375
2023-04-20T08:52:28.062Z,7.997437
2023-04-20T08:53:36.969Z,7.947083
2023-04-20T08:55:54.333Z,7.816162
2023-04-20T08:57:03.015Z,7.816162
2023-04-20T08:58:11.717Z,7.715454
2023-04-20T08:59:21.457Z,7.725525
2023-04-20T09:00:29.196Z,7.866516
2023-04-20T09:01:37.950Z,7.926941
2023-04-20T09:02:47.695Z,7.876587
2023-04-20T09:03:55.420Z,7.926941
2023-04-20T09:05:05.109Z,7.926941
2023-04-20T09:06:13.818Z,8.007507
2023-04-20T09:07:24.515Z,8.057861
2023-04-20T09:08:34.226Z,8.148499
2023-04-20T09:09:42.901Z,8.178711
2023-04-20T09:10:51.576Z,8.098145
2023-04-20T09:12:01.469Z,8.148499
2023-04-20T09:13:11.170Z,8.309631
2023-04-20T09:14:20.986Z,8.198853
2023-04-20T09:15:29.592Z,8.329773
2023-04-20T09:16:38.609Z,8.309631
2023-04-20T09:17:47.275Z,8.480835
2023-04-20T09:18:55.939Z,8.521118
2023-04-20T09:20:04.622Z,8.450623
2023-04-20T09:21:14.381Z,8.521118
2023-04-20T09:22:23.113Z,8.299561
2023-04-20T09:23:32.801Z,8.42041
2023-04-20T09:24:42.567Z,8.440552
2023-04-20T09:25:51.237Z,8.339844
2023-04-20T09:27:00.989Z,8.380127
2023-04-20T09:28:08.696Z,8.531189
2023-04-20T09:29:18.477Z,8.279419
2023-04-20T09:30:28.306Z,8.239136
2023-04-20T09:31:36.171Z,8.299561
2023-04-20T09:32:45.888Z,8.259277
2023-04-20T09:33:55.563Z,8.178711
2023-04-20T09:35:04.250Z,8.259277
2023-04-20T09:36:13.957Z,8.370056
2023-04-20T09:37:22.687Z,8.460693
2023-04-20T09:38:31.406Z,8.339844
2023-04-20T09:39:40.286Z,8.309631
2023-04-20T09:40:47.748Z,8.158569
2023-04-20T09:41:57.467Z,8.098145
2023-04-20T09:43:06.165Z,8.178711
2023-04-20T09:44:16.146Z,8.188782
2023-04-20T09:45:25.528Z,8.309631
2023-04-20T09:46:32.224Z,8.42041
2023-04-20T09:47:41.978Z,8.339844
2023-04-20T09:48:51.616Z,8.490906
2023-04-20T09:50:10.612Z,8.511047
2023-04-20T09:51:11.977Z,8.551331
2023-04-20T09:52:20.688Z,8.561401
2023-04-20T09:53:28.371Z,8.480835
2023-04-20T09:54:37.049Z,8.561401
2023-04-20T09:55:46.806Z,8.561401
2023-04-20T09:56:55.440Z,8.561401
2023-04-20T09:58:05.152Z,8.762817
2023-04-20T09:59:14.848Z,8.843384
2023-04-20T10:00:22.554Z,8.92395
2023-04-20T10:01:32.248Z,8.813171
2023-04-20T10:02:40.022Z,8.873596
2023-04-20T10:03:48.823Z,8.92395
2023-04-20T10:04:58.292Z,8.974304
2023-04-20T10:06:07.019Z,8.883667
2023-04-20T10:07:16.672Z,8.732605
2023-04-20T10:08:25.383Z,8.531189
2023-04-20T10:09:34.156Z,8.450623
2023-04-20T10:10:43.848Z,8.531189
2023-04-20T10:11:53.731Z,8.601685
2023-04-20T10:13:01.218Z,8.762817
2023-04-20T10:14:10.872Z,8.511047
2023-04-20T10:15:19.517Z,8.480835
2023-04-20T10:16:29.276Z,8.531189
2023-04-20T10:17:37.979Z,8.490906
2023-04-20T10:18:45.633Z,8.511047
2023-04-20T10:19:55.269Z,8.410339
2023-04-20T10:21:02.944Z,8.440552
2023-04-20T10:22:11.643Z,8.551331
2023-04-20T10:23:21.391Z,8.692322
2023-04-20T10:24:29.048Z,8.641968
2023-04-20T10:25:38.720Z,8.460693
2023-04-20T10:26:46.395Z,8.42041
2023-04-20T10:27:55.183Z,8.440552
2023-04-20T10:29:04.723Z,8.490906
2023-04-20T10:30:12.361Z,8.641968
2023-04-20T10:31:22.041Z,8.450623
2023-04-20T10:32:31.738Z,8.450623
2023-04-20T10:33:40.341Z,8.531189
2023-04-20T10:34:50.012Z,8.581543
2023-04-20T10:35:59.681Z,8.662109
2023-04-20T10:37:08.388Z,8.823242
2023-04-20T10:38:18.084Z,8.873596
2023-04-20T10:39:26.755Z,8.913879
2023-04-20T10:40:35.423Z,8.873596
2023-04-20T10:41:45.179Z,8.893738
2023-04-20T10:42:54.915Z,8.913879
2023-04-20T10:44:04.693Z,8.853455
2023-04-20T10:45:14.345Z,8.813171
2023-04-20T10:46:22.165Z,8.782959
2023-04-20T10:47:31.827Z,8.742676
2023-04-20T10:48:39.485Z,8.712463
2023-04-20T10:49:48.151Z,8.511047
2023-04-20T10:50:57.830Z,8.712463
2023-04-20T10:52:06.553Z,8.873596
2023-04-20T10:53:16.214Z,9.064941
2023-04-20T10:54:26.078Z,9.024658
2023-04-20T10:55:33.785Z,8.954163
2023-04-20T10:56:43.468Z,8.92395
2023-04-20T10:57:51.186Z,9.004517
2023-04-20T10:59:01.831Z,9.095154
2023-04-20T11:00:09.648Z,9.155579
2023-04-20T11:01:17.286Z,9.095154
2023-04-20T11:02:27.125Z,9.17572
2023-04-20T11:03:36.816Z,9.064941
2023-04-20T11:04:45.485Z,8.944092
2023-04-20T11:05:55.267Z,9.034729
2023-04-20T11:07:03.927Z,8.843384
2023-04-20T11:08:12.653Z,8.883667
2023-04-20T11:09:22.398Z,8.702393
2023-04-20T11:10:30.118Z,8.873596
2023-04-20T11:11:39.875Z,8.994446
2023-04-20T11:12:48.530Z,9.024658
2023-04-20T11:13:57.189Z,9.185791
2023-04-20T11:15:06.868Z,9.075012
2023-04-20T11:16:14.624Z,9.034729
2023-04-20T11:17:23.452Z,9.024658
2023-04-20T11:18:32.973Z,9.105225
2023-04-20T11:19:40.677Z,8.944092
2023-04-20T11:20:50.343Z,9.004517
2023-04-20T11:22:00.072Z,9.155579
2023-04-20T11:23:07.763Z,9.105225
2023-04-20T11:24:17.486Z,9.095154
2023-04-20T11:25:25.249Z,8.742676
2023-04-20T11:26:34.999Z,8.883667
2023-04-20T11:27:44.758Z,8.944092
2023-04-20T11:28:53.817Z,8.954163
2023-04-20T11:30:02.123Z,9.075012
2023-04-20T11:31:10.856Z,9.034729
2023-04-20T11:32:19.382Z,8.954163
2023-04-20T11:33:29.022Z,9.034729
2023-04-20T11:34:36.657Z,8.994446
2023-04-20T11:35:46.393Z,9.034729
2023-04-20T11:36:56.074Z,9.135437
2023-04-20T11:38:04.888Z,9.316711
2023-04-20T11:39:14.611Z,9.54834
2023-04-20T11:40:23.316Z,9.588623
2023-04-20T11:41:32.989Z,9.54834
2023-04-20T11:42:42.735Z,9.739685
2023-04-20T11:43:51.451Z,9.739685
2023-04-20T11:45:00.132Z,9.246216
2023-04-20T11:46:09.815Z,9.105225
2023-04-20T11:47:19.665Z,9.306641
2023-04-20T11:48:29.493Z,9.0448
2023-04-20T11:49:39.062Z,9.064941
2023-04-20T11:50:46.745Z,8.974304
2023-04-20T11:51:55.482Z,9.095154
2023-04-20T11:53:05.233Z,9.205933
2023-04-20T11:54:12.994Z,9.276428
2023-04-20T11:55:22.692Z,9.356995
2023-04-20T11:56:31.389Z,9.216003
2023-04-20T11:57:40.108Z,9.256287
2023-04-20T11:58:48.778Z,9.356995
2023-04-20T11:59:56.475Z,9.477844
2023-04-20T12:01:06.204Z,9.638977
2023-04-20T12:02:17.013Z,9.659119
2023-04-20T12:03:25.907Z,9.739685
2023-04-20T12:04:35.727Z,9.739685
2023-04-20T12:05:45.387Z,9.951172
2023-04-20T12:06:54.098Z,10.132446
2023-04-20T12:08:03.958Z,10.233154
2023-04-20T12:09:11.784Z,10.102234
2023-04-20T12:10:21.455Z,9.910889
2023-04-20T12:11:31.304Z,9.941101
2023-04-20T12:12:40.008Z,9.941101
2023-04-20T12:13:49.782Z,9.790039
2023-04-20T12:14:59.386Z,9.759827
2023-04-20T12:16:07.073Z,9.870605
2023-04-20T12:17:16.702Z,9.941101
2023-04-20T12:18:24.395Z,9.991455
2023-04-20T12:19:32.100Z,10.072021
2023-04-20T12:20:40.884Z,10.152588
2023-04-20T12:21:48.544Z,10.192871
2023-04-20T12:22:59.041Z,10.05188
2023-04-20T12:24:07.024Z,9.387207
2023-04-20T12:25:14.685Z,9.588623
2023-04-20T12:26:34.794Z,9.769897
2023-04-20T12:27:35.115Z,9.941101
2023-04-20T12:28:43.872Z,10.132446
2023-04-20T12:29:53.536Z,9.971313
2023-04-20T12:31:01.287Z,9.759827
2023-04-20T12:32:10.929Z,9.790039
2023-04-20T12:33:19.623Z,9.820251
2023-04-20T12:34:28.302Z,9.830322
2023-04-20T12:35:37.995Z,10.021667
2023-04-20T12:36:46.719Z,10.162659
2023-04-20T12:37:55.344Z,10.354004
2023-04-20T12:39:05.018Z,10.202942
2023-04-20T12:40:13.709Z,10.072021
2023-04-20T12:41:23.387Z,9.991455
2023-04-20T12:42:32.064Z,9.941101
2023-04-20T12:43:40.781Z,9.910889
2023-04-20T12:44:50.464Z,9.729614
2023-04-20T12:45:58.172Z,9.649048
2023-04-20T12:47:06.878Z,9.67926
2023-04-20T12:48:16.563Z,9.689331
2023-04-20T12:49:25.259Z,9.659119
2023-04-20T12:50:34.927Z,9.659119
2023-04-20T12:51:43.585Z,9.729614
2023-04-20T12:52:51.319Z,9.991455
2023-04-20T12:54:00.968Z,10.152588
2023-04-20T12:55:08.671Z,10.072021
2023-04-20T12:56:17.294Z,10.092163
2023-04-20T12:57:26.942Z,9.991455
2023-04-20T12:58:34.673Z,9.840393
2023-04-20T12:59:44.330Z,9.790039
2023-04-20T13:00:53.038Z,9.820251
2023-04-20T13:02:01.826Z,9.759827
2023-04-20T13:03:10.585Z,9.941101
2023-04-20T13:04:18.347Z,10.041809
2023-04-20T13:05:26.765Z,10.132446
2023-04-20T13:06:36.465Z,9.941101
2023-04-20T13:07:46.134Z,9.951172
2023-04-20T13:08:55.902Z,9.910889
2023-04-20T13:10:05.539Z,9.790039
2023-04-20T13:11:14.217Z,9.830322
2023-04-20T13:12:23.911Z,10.072021
2023-04-20T13:13:32.586Z,10.072021
2023-04-20T13:14:41.339Z,10.152588
2023-04-20T13:15:51.064Z,10.092163
2023-04-20T13:16:58.790Z,10.283508
2023-04-20T13:18:08.476Z,10.374146
2023-04-20T13:19:17.167Z,10.525208
2023-04-20T13:20:24.900Z,10.68634
2023-04-20T13:21:34.591Z,10.787048
2023-04-20T13:22:50.649Z,10.776978
2023-04-20T13:23:54.687Z,10.716553
2023-04-20T13:25:03.064Z,10.756836
2023-04-20T13:26:11.293Z,10.776978
2023-04-20T13:27:20.947Z,10.817261
2023-04-20T13:28:30.657Z,10.837402
2023-04-20T13:29:39.370Z,10.958252
2023-04-20T13:30:49.046Z,11.069031
2023-04-20T13:31:56.821Z,10.837402
2023-04-20T13:33:05.490Z,10.756836